Time;durP1;ratioP1;P1;durP2;ratioP2;P2;SDS_P1;SDS_P2;PMS_P1;PMS_P2;Temp;Humidity;BMP_temperature;BMP_pressure;BME280_temperature;BME280_humidity;BME280_pressure;Samples;Min_cycle;Max_cycle;Signal;HPM_P1;HPM_P2
2023/04/16 00:01:13;;;;;;;9.50;2.20;;;;;;;-146.27;99.09;83746.38;5090279;28;20015;-66
2023/04/16 00:03:38;;;;;;;9.93;2.13;;;;;;;-146.27;99.34;83762.47;5083927;28;20031;-64
2023/04/16 00:06:04;;;;;;;15.73;2.55;;;;;;;-146.27;98.95;83750.41;5091063;28;20479;-65
2023/04/16 00:08:29;;;;;;;10.02;2.60;;;;;;;-146.27;99.80;83774.53;5090749;28;20023;-65
2023/04/16 00:10:55;;;;;;;10.00;2.28;;;;;;;-146.27;100.00;83732.31;5092570;28;20104;-66
2023/04/16 00:13:21;;;;;;;10.57;2.20;;;;;;;-146.27;99.94;83702.19;5093795;28;20055;-64
2023/04/16 00:15:46;;;;;;;10.10;2.20;;;;;;;-146.27;99.96;83748.41;5094126;28;20024;-64
2023/04/16 00:18:12;;;;;;;10.75;2.15;;;;;;;-146.27;99.15;83762.47;5092512;28;20494;-64
2023/04/16 00:20:38;;;;;;;7.28;1.60;;;;;;;-146.27;99.59;83754.44;5092122;28;20036;-65
2023/04/16 00:23:04;;;;;;;9.80;2.25;;;;;;;-146.27;99.34;83734.31;5090017;28;20023;-64
2023/04/16 00:25:29;;;;;;;8.82;1.90;;;;;;;-146.27;100.00;83726.28;5094106;28;20024;-65
2023/04/16 00:27:54;;;;;;;19.63;2.25;;;;;;;-146.27;99.88;83730.31;5090316;28;20024;-64
2023/04/16 00:30:20;;;;;;;9.18;2.20;;;;;;;-146.27;99.51;83774.53;5092769;28;20027;-65
2023/04/16 00:32:45;;;;;;;8.10;1.70;;;;;;;-146.27;100.00;83736.34;5091371;28;20058;-64
2023/04/16 00:35:10;;;;;;;10.32;2.13;;;;;;;-146.27;99.78;83754.44;5091607;28;20114;-65
2023/04/16 00:37:36;;;;;;;7.45;1.98;;;;;;;-146.27;99.38;83756.44;5087360;28;20035;-64
2023/04/16 00:40:01;;;;;;;9.27;2.03;;;;;;;-146.27;99.35;83778.53;5073724;28;20055;-65
2023/04/16 00:42:26;;;;;;;7.85;1.90;;;;;;;-146.27;99.11;83756.44;5090925;28;20028;-65
2023/04/16 00:44:52;;;;;;;12.45;2.20;;;;;;;-146.27;98.98;83738.34;5090877;28;20024;-64
2023/04/16 00:47:18;;;;;;;15.38;2.17;;;;;;;-146.27;99.10;83752.41;5093274;28;20059;-63
2023/04/16 00:49:44;;;;;;;10.60;2.00;;;;;;;-146.27;98.67;83718.25;5091901;28;20110;-64
2023/04/16 00:52:10;;;;;;;9.52;2.00;;;;;;;-146.27;98.54;83752.41;5093362;28;20033;-65
2023/04/16 00:54:36;;;;;;;13.07;2.03;;;;;;;-146.27;98.77;83764.47;5089900;28;20035;-66
2023/04/16 00:57:01;;;;;;;5.30;1.52;;;;;;;-146.27;99.37;83782.56;5090601;28;20032;-65
2023/04/16 00:59:28;;;;;;;11.18;2.53;;;;;;;-146.27;99.29;83760.44;5085098;28;20039;-65
2023/04/16 01:01:53;;;;;;;15.15;2.80;;;;;;;-146.27;99.64;83728.31;5080752;28;20029;-64
2023/04/16 01:04:19;;;;;;;11.35;2.67;;;;;;;-146.27;99.44;83764.47;5091715;28;20096;-65
2023/04/16 01:06:44;;;;;;;7.55;2.35;;;;;;;-146.27;99.17;83714.22;5089819;28;20393;-65
2023/04/16 01:09:10;;;;;;;9.82;2.03;;;;;;;-146.27;99.28;83734.31;5082484;28;20104;-66
2023/04/16 01:11:36;;;;;;;11.40;2.40;;;;;;;-146.27;99.01;83750.41;5089958;28;20031;-65
2023/04/16 01:14:02;;;;;;;7.75;1.98;;;;;;;-146.27;99.01;83778.53;5091180;28;20024;-65
2023/04/16 01:16:27;;;;;;;15.07;2.88;;;;;;;-146.27;99.19;83738.34;5093078;28;20038;-65
2023/04/16 01:18:53;;;;;;;10.35;2.33;;;;;;;-146.27;99.58;83744.38;5092222;28;20081;-64
2023/04/16 01:21:18;;;;;;;11.07;2.25;;;;;;;-146.27;99.57;83722.28;5092028;28;20456;-64
2023/04/16 01:23:43;;;;;;;10.30;2.03;;;;;;;-146.27;99.16;83730.31;5091067;28;20410;-65
2023/04/16 01:26:09;;;;;;;13.05;2.35;;;;;;;-146.27;99.20;83744.38;5091774;28;20036;-65
2023/04/16 01:28:35;;;;;;;12.98;2.92;;;;;;;-146.27;99.56;83891.06;5088674;28;20024;-64
2023/04/16 01:31:00;;;;;;;10.90;2.55;;;;;;;-146.27;99.02;83770.50;5092426;28;20017;-65
2023/04/16 01:33:25;;;;;;;16.10;2.90;;;;;;;-146.27;99.46;83754.44;5087550;28;20545;-65
2023/04/16 01:35:51;;;;;;;17.63;2.85;;;;;;;-146.27;99.52;83754.44;5090909;28;20024;-64
2023/04/16 01:38:16;;;;;;;15.38;2.60;;;;;;;-146.27;99.22;83778.53;5087489;28;20022;-65
2023/04/16 01:40:42;;;;;;;9.65;2.40;;;;;;;-146.27;99.49;83730.31;5087876;28;20038;-63
2023/04/16 01:43:07;;;;;;;13.48;2.38;;;;;;;-146.27;99.09;83766.47;5089713;28;20076;-65
2023/04/16 01:45:34;;;;;;;16.63;3.05;;;;;;;-146.27;99.21;83740.34;5090832;28;20016;-64
2023/04/16 01:48:00;;;;;;;12.30;3.58;;;;;;;-146.27;99.10;83734.31;5088561;28;20554;-65
2023/04/16 01:50:26;;;;;;;11.43;2.92;;;;;;;-146.27;99.64;83738.34;5090528;28;20108;-64
2023/04/16 01:52:51;;;;;;;9.50;2.80;;;;;;;-146.27;99.14;83750.41;5083336;28;20032;-64
2023/04/16 01:55:16;;;;;;;10.38;2.45;;;;;;;-146.27;98.92;83752.41;5090601;28;20024;-65
2023/04/16 01:57:42;;;;;;;5.75;2.40;;;;;;;-146.27;99.49;83766.47;5091286;28;20114;-65
2023/04/16 02:00:08;;;;;;;7.03;1.90;;;;;;;-146.27;99.25;83754.44;5091105;28;20077;-64
2023/04/16 02:02:34;;;;;;;9.23;3.45;;;;;;;-146.27;100.00;83758.44;5085114;28;20028;-64
2023/04/16 02:05:00;;;;;;;13.38;5.25;;;;;;;-146.27;100.00;83810.69;5077116;28;20020;-64
2023/04/16 02:07:26;;;;;;;9.50;2.35;;;;;;;-146.27;100.00;83774.53;5087074;28;20126;-65
2023/04/16 02:09:52;;;;;;;20.00;3.47;;;;;;;-146.27;100.00;83788.59;5086594;28;20032;-64
2023/04/16 02:12:18;;;;;;;19.83;3.20;;;;;;;-146.27;100.00;83780.53;5087954;28;20028;-65
2023/04/16 02:14:43;;;;;;;12.05;2.63;;;;;;;-146.27;100.00;83778.53;5077209;28;20027;-65
2023/04/16 02:17:09;;;;;;;12.50;3.40;;;;;;;-146.27;100.00;83782.56;5086962;28;20094;-65
2023/04/16 02:19:35;;;;;;;10.75;2.92;;;;;;;-146.27;100.00;83806.66;5085679;28;20028;-64
2023/04/16 02:22:00;;;;;;;12.40;2.90;;;;;;;-146.27;100.00;83712.22;5086447;28;20122;-64
2023/04/16 02:24:26;;;;;;;12.77;2.70;;;;;;;-146.27;100.00;83786.56;5088600;28;20012;-65
2023/04/16 02:26:52;;;;;;;13.13;2.67;;;;;;;-146.27;100.00;83806.66;5083317;28;20032;-66
2023/04/16 02:29:18;;;;;;;20.90;3.35;;;;;;;-146.27;100.00;83826.75;5081713;28;20472;-65
2023/04/16 02:31:44;;;;;;;20.02;3.40;;;;;;;-146.27;100.00;83786.56;5086352;28;20089;-65
2023/04/16 02:34:09;;;;;;;16.00;2.67;;;;;;;-146.27;100.00;83792.59;5079332;28;20036;-66
2023/04/16 02:36:35;;;;;;;15.82;3.00;;;;;;;-146.27;100.00;83792.59;5087832;28;20077;-64
2023/04/16 02:39:00;;;;;;;16.10;2.95;;;;;;;-146.27;100.00;83818.72;5089351;28;20134;-63
2023/04/16 02:41:26;;;;;;;12.23;3.03;;;;;;;-146.27;100.00;83852.88;5088242;28;20024;-66
2023/04/16 02:43:51;;;;;;;13.57;3.38;;;;;;;-146.27;100.00;83842.84;5090725;28;20444;-65
2023/04/16 02:46:16;;;;;;;14.88;3.42;;;;;;;-146.27;100.00;83828.78;5090410;28;20027;-64
2023/04/16 02:48:42;;;;;;;13.68;2.88;;;;;;;-146.27;100.00;83842.84;5084108;28;20084;-65
2023/04/16 02:51:07;;;;;;;10.35;3.95;;;;;;;-146.27;100.00;83862.94;5090480;28;20027;-65
2023/04/16 02:53:32;;;;;;;14.90;3.40;;;;;;;-146.27;100.00;83903.13;5090816;28;20066;-64
2023/04/16 02:55:58;;;;;;;15.32;3.75;;;;;;;-146.27;100.00;83850.88;5090917;28;20032;-65
2023/04/16 02:58:25;;;;;;;13.02;3.72;;;;;;;-146.27;100.00;83858.91;5090984;28;20028;-65
2023/04/16 03:00:52;;;;;;;10.10;3.00;;;;;;;-146.27;100.00;83860.94;5084383;28;20115;-65
2023/04/16 03:03:18;;;;;;;12.88;3.25;;;;;;;-146.27;100.00;83883.03;5084045;28;20597;-65
2023/04/16 03:05:43;;;;;;;11.57;3.67;;;;;;;-146.27;100.00;83883.03;5087234;28;20123;-66
2023/04/16 03:08:09;;;;;;;17.45;4.03;;;;;;;-146.27;100.00;83872.97;5084762;28;20092;-64
2023/04/16 03:10:35;;;;;;;14.45;3.60;;;;;;;-146.27;100.00;83919.19;5082777;28;20031;-65
2023/04/16 03:13:01;;;;;;;16.40;4.30;;;;;;;-146.27;100.00;83856.91;5085087;28;20023;-63
2023/04/16 03:15:26;;;;;;;8.77;3.40;;;;;;;-146.27;100.00;83862.94;5094122;28;20028;-64
2023/04/16 03:17:52;;;;;;;21.63;4.45;;;;;;;-146.27;100.00;83883.03;5092633;28;20462;-64
2023/04/16 03:20:18;;;;;;;17.15;3.42;;;;;;;-146.27;100.00;83875.00;5093261;28;20059;-65
2023/04/16 03:22:44;;;;;;;11.02;3.08;;;;;;;-146.27;100.00;83883.03;5093118;28;20020;-64
2023/04/16 03:25:10;;;;;;;13.00;4.03;;;;;;;-146.27;100.00;83887.06;5094918;28;20111;-65
2023/04/16 03:27:35;;;;;;;21.98;4.55;;;;;;;-146.27;100.00;83881.03;5093520;28;20067;-65
2023/04/16 03:30:01;;;;;;;16.02;3.88;;;;;;;-146.27;100.00;83864.94;5093999;28;20046;-64
2023/04/16 03:32:26;;;;;;;19.60;3.90;;;;;;;-146.27;100.00;83858.91;5090844;28;20028;-64
2023/04/16 03:34:52;;;;;;;13.23;3.55;;;;;;;-146.27;100.00;83877.00;5091380;28;20100;-64
2023/04/16 03:37:17;;;;;;;16.27;3.60;;;;;;;-146.27;100.00;83885.03;5087664;28;20198;-66
2023/04/16 03:39:43;;;;;;;10.05;3.28;;;;;;;-146.27;100.00;83822.75;5091877;28;20112;-65
2023/04/16 03:42:08;;;;;;;12.05;3.22;;;;;;;-146.27;100.00;83858.91;5091750;28;20469;-65
2023/04/16 03:44:33;;;;;;;19.52;3.53;;;;;;;-146.27;100.00;83862.94;5093642;28;20130;-65
2023/04/16 03:46:59;;;;;;;15.63;3.35;;;;;;;-146.27;100.00;83866.97;5090873;28;20081;-65
2023/04/16 03:49:25;;;;;;;12.82;3.42;;;;;;;-146.27;100.00;83854.91;5093116;28;20024;-64
2023/04/16 03:51:51;;;;;;;22.55;3.53;;;;;;;-146.27;100.00;83895.09;5093815;28;20537;-65
2023/04/16 03:54:16;;;;;;;13.40;3.25;;;;;;;-146.27;100.00;83868.97;5094516;28;20016;-65
2023/04/16 03:56:42;;;;;;;17.60;3.08;;;;;;;-146.27;100.00;83846.84;5079409;28;20066;-66
2023/04/16 03:59:10;;;;;;;14.13;4.13;;;;;;;-146.27;100.00;83872.97;5093587;28;20028;-65
2023/04/16 04:01:36;;;;;;;14.75;3.58;;;;;;;-146.27;100.00;83887.06;5090192;28;20036;-65
2023/04/16 04:04:01;;;;;;;10.65;3.28;;;;;;;-146.27;100.00;83858.91;5086828;28;20070;-65
2023/04/16 04:06:26;;;;;;;11.30;2.70;;;;;;;-146.27;100.00;83864.94;5093175;28;20450;-65
2023/04/16 04:08:52;;;;;;;5.88;2.35;;;;;;;-146.27;100.00;83868.97;5091126;28;20032;-65
2023/04/16 04:11:18;;;;;;;8.57;2.55;;;;;;;-146.27;100.00;83907.16;5089927;28;20044;-64
2023/04/16 04:13:43;;;;;;;12.70;2.72;;;;;;;-146.27;100.00;83866.97;5089932;28;20029;-66
2023/04/16 04:16:09;;;;;;;10.15;2.72;;;;;;;-146.27;100.00;83866.97;5078367;28;20392;-65
2023/04/16 04:18:34;;;;;;;15.45;2.95;;;;;;;-146.27;100.00;83852.88;5081846;28;20020;-65
2023/04/16 04:21:04;;;;;;;4.68;2.60;;;;;;;-146.27;100.00;83903.13;5084601;28;20035;-65
2023/04/16 04:23:29;;;;;;;14.15;3.22;;;;;;;-146.27;100.00;83862.94;5082391;28;20422;-64
2023/04/16 04:25:55;;;;;;;14.48;3.00;;;;;;;-146.27;100.00;83862.94;5082328;28;20028;-65
2023/04/16 04:28:20;;;;;;;10.73;2.63;;;;;;;-146.27;100.00;83862.94;5090087;28;20032;-64
2023/04/16 04:30:46;;;;;;;11.25;2.53;;;;;;;-146.27;100.00;83899.09;5081314;28;20071;-66
2023/04/16 04:33:11;;;;;;;10.77;2.92;;;;;;;-146.27;100.00;83881.03;5093402;28;20035;-66
2023/04/16 04:35:36;;;;;;;14.88;2.60;;;;;;;-146.27;100.00;83909.16;5087192;28;20044;-65
2023/04/16 04:38:02;;;;;;;17.20;2.75;;;;;;;-146.27;100.00;83889.06;5096846;28;20024;-65
2023/04/16 04:40:27;;;;;;;6.95;2.22;;;;;;;-146.27;100.00;83925.22;5093618;28;20378;-65
2023/04/16 04:42:52;;;;;;;11.50;2.65;;;;;;;-146.27;100.00;83909.16;5087044;28;20028;-66
2023/04/16 04:45:18;;;;;;;14.63;3.55;;;;;;;-146.27;100.00;83891.06;5091500;28;20028;-65
2023/04/16 04:47:43;;;;;;;10.80;2.80;;;;;;;-146.27;100.00;83931.25;5090228;28;20468;-65
2023/04/16 04:50:09;;;;;;;9.23;2.53;;;;;;;-146.27;100.00;83913.19;5090492;28;20407;-66
2023/04/16 04:52:34;;;;;;;7.60;1.98;;;;;;;-146.27;100.00;83856.91;5089315;28;20043;-66
2023/04/16 04:55:00;;;;;;;12.50;2.35;;;;;;;-146.27;100.00;83883.03;5083411;28;20025;-64
2023/04/16 04:57:25;;;;;;;12.50;3.85;;;;;;;-146.27;100.00;83883.03;5082706;28;20585;-65
2023/04/16 04:59:50;;;;;;;10.43;2.78;;;;;;;-146.27;100.00;83899.09;5083624;28;20073;-66
2023/04/16 05:02:16;;;;;;;13.48;2.70;;;;;;;-146.27;100.00;83913.19;5086372;28;20077;-65
2023/04/16 05:04:41;;;;;;;10.27;3.22;;;;;;;-146.27;100.00;83915.19;5088522;28;20024;-65
2023/04/16 05:07:06;;;;;;;13.02;3.15;;;;;;;-146.27;100.00;83917.19;5088622;28;20044;-65
2023/04/16 05:09:32;;;;;;;15.00;3.83;;;;;;;-146.27;100.00;83895.09;5093565;28;20020;-69
2023/04/16 05:11:57;;;;;;;9.82;3.35;;;;;;;-146.27;100.00;83917.19;5087326;28;20068;-69
2023/04/16 05:14:23;;;;;;;14.40;3.20;;;;;;;-146.27;100.00;83887.06;5092534;28;20035;-70
2023/04/16 05:16:48;;;;;;;15.88;3.30;;;;;;;-146.27;100.00;83915.19;5092492;28;20027;-68
2023/04/16 05:19:15;;;;;;;11.63;3.83;;;;;;;-146.27;100.00;83909.16;5091517;28;20379;-69
2023/04/16 05:21:41;;;;;;;8.05;3.22;;;;;;;-146.27;100.00;83903.13;5093050;28;20476;-70
2023/04/16 05:24:06;;;;;;;16.60;3.22;;;;;;;-146.27;100.00;83868.97;5091798;28;20020;-69
2023/04/16 05:26:31;;;;;;;15.38;3.50;;;;;;;-146.27;100.00;83905.13;5091014;28;20035;-69
2023/04/16 05:28:57;;;;;;;12.55;3.08;;;;;;;-146.27;100.00;83875.00;5090980;28;20028;-69
2023/04/16 05:31:22;;;;;;;6.65;3.08;;;;;;;-146.27;100.00;83913.19;5088168;28;20060;-69
2023/04/16 05:33:47;;;;;;;8.57;3.88;;;;;;;-146.27;100.00;83852.88;5091912;28;20149;-69
2023/04/16 05:36:13;;;;;;;6.65;3.05;;;;;;;-146.27;100.00;83870.97;5086059;28;20440;-69
2023/04/16 05:38:38;;;;;;;9.63;3.08;;;;;;;-146.27;100.00;83887.06;5090490;28;20032;-65
2023/04/16 05:41:03;;;;;;;8.52;3.13;;;;;;;-146.27;100.00;83919.19;5091696;28;20028;-68
2023/04/16 05:43:29;;;;;;;14.90;3.65;;;;;;;-146.27;100.00;83901.13;5089890;28;20036;-67
2023/04/16 05:45:54;;;;;;;9.23;3.15;;;;;;;-146.27;100.00;83891.06;5090398;28;20050;-68
2023/04/16 05:48:19;;;;;;;9.82;3.20;;;;;;;-146.27;100.00;83850.88;5090624;28;20382;-67
2023/04/16 05:50:44;;;;;;;15.23;3.63;;;;;;;-146.27;100.00;83877.00;5089483;28;20042;-67
2023/04/16 05:53:10;;;;;;;9.60;3.45;;;;;;;-146.27;100.00;83885.03;5083851;28;20031;-68
2023/04/16 05:55:36;;;;;;;11.30;3.50;;;;;;;-146.27;100.00;83903.13;5086712;28;20433;-72
2023/04/16 05:58:03;;;;;;;12.65;3.72;;;;;;;-146.27;100.00;83893.06;5089395;28;20058;-66
2023/04/16 06:00:29;;;;;;;13.30;4.40;;;;;;;-146.27;100.00;83858.91;5092269;28;20069;-65
2023/04/16 06:02:54;;;;;;;12.88;4.07;;;;;;;-146.27;100.00;83883.03;5091975;28;20032;-65
2023/04/16 06:05:20;;;;;;;12.48;3.55;;;;;;;-146.27;100.00;83901.13;5092038;28;20045;-66
2023/04/16 06:07:45;;;;;;;12.23;3.22;;;;;;;-146.27;100.00;83903.13;5091720;28;20078;-65
2023/04/16 06:10:11;;;;;;;11.55;3.70;;;;;;;-146.27;100.00;83838.81;5090571;28;20108;-65
2023/04/16 06:12:36;;;;;;;13.50;3.60;;;;;;;-146.27;100.00;83895.09;5091915;28;20040;-66
2023/04/16 06:15:02;;;;;;;10.77;3.92;;;;;;;-146.27;100.00;83877.00;5091678;28;20024;-66
2023/04/16 06:17:27;;;;;;;13.82;3.92;;;;;;;-146.27;100.00;83860.94;5091860;28;20028;-65
2023/04/16 06:19:53;;;;;;;11.00;3.83;;;;;;;-146.27;100.00;83921.22;5091519;28;20030;-66
2023/04/16 06:22:18;;;;;;;10.65;3.72;;;;;;;-146.27;100.00;83885.03;5091817;28;20266;-66
2023/04/16 06:24:43;;;;;;;8.52;3.38;;;;;;;-146.27;100.00;83895.09;5091694;28;20117;-66
2023/04/16 06:27:09;;;;;;;8.73;3.55;;;;;;;-146.27;100.00;83858.91;5091836;28;20032;-66
2023/04/16 06:29:34;;;;;;;6.15;3.70;;;;;;;-146.27;100.00;83907.16;5090544;28;20043;-66
2023/04/16 06:32:00;;;;;;;18.25;5.53;;;;;;;-146.27;100.00;83921.22;5091631;28;20027;-66
2023/04/16 06:34:26;;;;;;;9.90;4.57;;;;;;;-146.27;100.00;83850.88;5091863;28;20030;-66
2023/04/16 06:36:52;;;;;;;15.88;4.90;;;;;;;-146.27;100.00;83875.00;5091626;28;20035;-64
2023/04/16 06:39:20;;;;;;;17.88;4.80;;;;;;;-146.27;100.00;83885.03;5090395;28;20036;-66
2023/04/16 06:41:46;;;;;;;12.45;4.72;;;;;;;-146.27;100.00;83911.16;5091890;28;20031;-66
2023/04/16 06:44:11;;;;;;;10.93;4.97;;;;;;;-146.27;100.00;83883.03;5091633;28;20058;-65
2023/04/16 06:46:36;;;;;;;12.50;4.55;;;;;;;-146.27;100.00;83891.06;5091658;28;20451;-65
2023/04/16 06:49:02;;;;;;;16.90;4.72;;;;;;;-146.27;100.00;83931.25;5094598;28;20069;-65
2023/04/16 06:51:27;;;;;;;8.05;4.32;;;;;;;-146.27;100.00;83881.03;5094455;28;20069;-65
2023/04/16 06:53:53;;;;;;;14.40;5.03;;;;;;;-146.27;100.00;83895.09;5095496;28;20059;-65
2023/04/16 06:56:18;;;;;;;10.77;4.03;;;;;;;-146.27;100.00;83895.09;5095848;28;20020;-65
2023/04/16 06:58:43;;;;;;;12.55;5.53;;;;;;;-146.27;100.00;83887.06;5095748;28;20036;-65
2023/04/16 07:01:09;;;;;;;12.32;4.22;;;;;;;-146.27;100.00;83905.13;5095431;28;20480;-66
2023/04/16 07:03:35;;;;;;;10.80;5.15;;;;;;;-146.27;100.00;83919.19;5095761;28;20086;-66
2023/04/16 07:06:01;;;;;;;9.13;4.38;;;;;;;-146.27;100.00;83911.16;5095756;28;20034;-66
2023/04/16 07:08:26;;;;;;;8.75;5.35;;;;;;;-146.27;100.00;83879.00;5095457;28;20391;-67
2023/04/16 07:10:52;;;;;;;13.15;4.65;;;;;;;-146.27;100.00;83891.06;5096326;28;20103;-66
2023/04/16 07:13:18;;;;;;;12.10;4.95;;;;;;;-146.27;100.00;83879.00;5095163;28;20024;-65
2023/04/16 07:15:43;;;;;;;13.43;4.30;;;;;;;-146.27;100.00;83862.94;5095668;28;20044;-67
2023/04/16 07:18:09;;;;;;;12.90;4.57;;;;;;;-146.27;100.00;83866.97;5095320;28;20032;-66
2023/04/16 07:20:35;;;;;;;8.65;5.10;;;;;;;-146.27;100.00;83870.97;5095261;28;20034;-67
2023/04/16 07:23:00;;;;;;;8.80;4.68;;;;;;;-146.27;100.00;83842.84;5093743;28;20055;-66
2023/04/16 07:25:26;;;;;;;12.25;5.30;;;;;;;-146.27;100.00;83870.97;5095136;28;20031;-66
2023/04/16 07:27:51;;;;;;;11.98;4.95;;;;;;;-146.27;100.00;83883.03;5095060;28;20024;-67
2023/04/16 07:30:16;;;;;;;12.18;5.55;;;;;;;-146.27;100.00;83830.78;5095131;28;20024;-66
2023/04/16 07:32:42;;;;;;;9.55;4.35;;;;;;;-146.27;100.00;83866.97;5095159;28;20072;-66
2023/04/16 07:35:07;;;;;;;9.23;4.53;;;;;;;-146.27;100.00;83846.84;5095183;28;20039;-66
2023/04/16 07:37:33;;;;;;;9.68;5.28;;;;;;;-146.27;100.00;83830.78;5094910;28;20460;-66
2023/04/16 07:39:59;;;;;;;7.50;4.10;;;;;;;-146.27;100.00;83794.63;5094821;28;20028;-66
2023/04/16 07:42:25;;;;;;;14.43;4.15;;;;;;;-146.27;100.00;83830.78;5094535;28;20145;-65
2023/04/16 07:44:51;;;;;;;11.13;4.35;;;;;;;-146.27;100.00;83862.94;5094640;28;20031;-66
2023/04/16 07:47:16;;;;;;;10.63;4.18;;;;;;;-146.27;100.00;83879.00;5094726;28;20022;-67
2023/04/16 07:49:41;;;;;;;9.00;3.97;;;;;;;-146.27;100.00;83858.91;5095160;28;20099;-66
2023/04/16 07:52:07;;;;;;;9.10;4.10;;;;;;;-146.27;100.00;83870.97;5094514;28;20027;-66
2023/04/16 07:54:32;;;;;;;13.23;4.15;;;;;;;-146.27;100.00;83840.84;5094343;28;20111;-66
2023/04/16 07:56:57;;;;;;;12.25;4.53;;;;;;;-146.27;100.00;83800.63;5094436;28;20059;-67
2023/04/16 07:59:23;;;;;;;12.93;5.32;;;;;;;-146.27;100.00;83842.84;5093506;28;20020;-67
2023/04/16 08:01:48;;;;;;;12.07;4.68;;;;;;;-146.27;100.00;83822.75;5094542;28;20111;-66
2023/04/16 08:04:16;;;;;;;12.65;4.95;;;;;;;-146.27;100.00;83794.63;5094641;28;20027;-67
2023/04/16 08:06:41;;;;;;;15.32;5.20;;;;;;;-146.27;100.00;83790.59;5092838;28;20478;-67
2023/04/16 08:09:06;;;;;;;14.02;5.53;;;;;;;-146.27;100.00;83818.72;5094521;28;20114;-66
2023/04/16 08:11:32;;;;;;;18.27;5.00;;;;;;;-146.27;100.00;83798.63;5094167;28;20027;-66
2023/04/16 08:13:57;;;;;;;8.77;4.95;;;;;;;-146.27;100.00;83774.53;5093992;28;20028;-65
2023/04/16 08:16:23;;;;;;;11.45;5.18;;;;;;;-146.27;100.00;83796.63;5094166;28;20028;-65
2023/04/16 08:18:48;;;;;;;11.32;4.63;;;;;;;-146.27;100.00;83734.31;5094092;28;20032;-66
2023/04/16 08:21:13;;;;;;;9.43;4.35;;;;;;;-146.27;100.00;83786.56;5093939;28;20032;-66
2023/04/16 08:23:39;;;;;;;13.95;4.18;;;;;;;-146.27;100.00;83810.69;5092622;28;20483;-66
2023/04/16 08:26:04;;;;;;;8.55;4.10;;;;;;;-146.27;100.00;83786.56;5093801;28;20043;-65
2023/04/16 08:28:30;;;;;;;18.67;4.90;;;;;;;-146.27;100.00;83770.50;5093858;28;20016;-65
2023/04/16 08:30:55;;;;;;;10.10;3.92;;;;;;;-146.27;100.00;83754.44;5093695;28;20031;-66
2023/04/16 08:33:20;;;;;;;15.77;4.45;;;;;;;-146.27;100.00;83802.66;5093694;28;20107;-66
2023/04/16 08:35:46;;;;;;;11.55;3.80;;;;;;;-146.27;100.00;83788.59;5093936;28;20050;-66
2023/04/16 08:38:11;;;;;;;11.48;4.70;;;;;;;-146.27;100.00;83768.50;5093795;28;20020;-66
2023/04/16 08:40:38;;;;;;;18.70;5.28;;;;;;;-146.27;100.00;83794.63;5093571;28;20036;-66
2023/04/16 08:43:09;;;;;;;5.85;3.90;;;;;;;-146.27;100.00;83768.50;5093505;28;20400;-65
2023/04/16 08:45:35;;;;;;;8.85;4.20;;;;;;;-146.27;100.00;83686.09;5093430;28;20104;-66
2023/04/16 08:48:04;;;;;;;14.88;4.95;;;;;;;-146.27;100.00;83764.47;5093373;28;20035;-66
2023/04/16 08:50:32;;;;;;;13.93;5.00;;;;;;;-146.27;100.00;83778.53;5093288;28;20333;-66
2023/04/16 08:52:58;;;;;;;12.05;4.72;;;;;;;-146.27;100.00;83750.41;5093490;28;20032;-65
2023/04/16 08:55:38;;;;;;;10.45;4.85;;;;;;;-146.27;100.00;83780.53;5093031;28;20042;-66
2023/04/16 08:58:21;;;;;;;14.68;4.80;;;;;;;-146.27;100.00;83750.41;5093401;28;20032;-66
2023/04/16 09:00:48;;;;;;;12.52;4.50;;;;;;;-146.27;100.00;83746.38;5093373;28;20076;-67
2023/04/16 09:03:13;;;;;;;15.15;4.53;;;;;;;-146.27;100.00;83728.31;5093132;28;20053;-66
2023/04/16 09:05:39;;;;;;;10.68;4.13;;;;;;;-146.27;100.00;83738.34;5092896;28;20419;-66
2023/04/16 09:08:05;;;;;;;17.60;4.80;;;;;;;-146.27;100.00;83738.34;5092879;28;20048;-65
2023/04/16 09:10:31;;;;;;;16.90;4.40;;;;;;;-146.27;100.00;83742.38;5093163;28;20031;-65
2023/04/16 09:12:57;;;;;;;15.93;4.82;;;;;;;-146.27;100.00;83742.38;5093046;28;20028;-67
2023/04/16 09:15:24;;;;;;;14.20;4.57;;;;;;;-146.27;100.00;83760.44;5092787;28;20024;-66
2023/04/16 09:17:51;;;;;;;21.00;4.97;;;;;;;-146.27;100.00;83736.34;5092815;28;20075;-64
2023/04/16 09:20:17;;;;;;;13.15;5.22;;;;;;;-146.27;100.00;83686.09;5092969;28;20035;-66
2023/04/16 09:22:43;;;;;;;13.40;6.22;;;;;;;-146.27;100.00;83758.44;5092864;28;20028;-66
2023/04/16 09:25:09;;;;;;;14.07;4.95;;;;;;;-146.27;100.00;83706.19;5092801;28;20032;-66
2023/04/16 09:27:36;;;;;;;13.95;5.25;;;;;;;-146.27;100.00;83752.41;5092606;28;20066;-66
2023/04/16 09:30:20;;;;;;;16.48;5.38;;;;;;;-146.27;100.00;83710.22;5076578;28;20480;-68
2023/04/16 09:32:46;;;;;;;20.40;4.85;;;;;;;-146.27;100.00;83794.63;5092768;28;20387;-66
2023/04/16 09:35:11;;;;;;;13.07;4.28;;;;;;;-146.27;100.00;83714.22;5091861;28;20032;-66
2023/04/16 09:37:36;;;;;;;13.13;4.63;;;;;;;-146.27;100.00;83690.13;5093001;28;20070;-66
2023/04/16 09:40:03;;;;;;;17.48;5.97;;;;;;;-146.27;100.00;83730.31;5092176;28;20028;-67
2023/04/16 09:42:31;;;;;;;15.70;5.55;;;;;;;-146.27;100.00;83750.41;5092503;28;20027;-65
2023/04/16 09:44:57;;;;;;;16.80;5.05;;;;;;;-146.27;100.00;83714.22;5092701;28;20023;-66
2023/04/16 09:47:37;;;;;;;18.02;6.07;;;;;;;-146.27;100.00;83700.16;5092014;28;20061;-66
2023/04/16 09:50:03;;;;;;;15.35;6.68;;;;;;;-146.27;100.00;83708.22;5092327;28;20031;-66
2023/04/16 09:52:28;;;;;;;14.07;5.43;;;;;;;-146.27;100.00;83714.22;5091909;28;20024;-65
2023/04/16 09:54:54;;;;;;;19.95;5.80;;;;;;;-146.27;100.00;83708.22;5092224;28;20020;-65
2023/04/16 09:57:23;;;;;;;11.05;4.47;;;;;;;-146.27;100.00;83678.06;5092468;28;20031;-66
2023/04/16 10:00:00;;;;;;;18.20;6.13;;;;;;;-146.27;100.00;83670.03;5092392;28;20031;-66
2023/04/16 10:02:29;;;;;;;18.40;5.78;;;;;;;-146.27;100.00;83702.19;5092473;28;20525;-65
2023/04/16 10:04:56;;;;;;;13.30;6.03;;;;;;;-146.27;100.00;83662.00;5092352;28;20038;-66
2023/04/16 10:07:22;;;;;;;16.38;5.40;;;;;;;-146.27;100.00;83702.19;5092087;28;20039;-66
2023/04/16 10:09:48;;;;;;;12.75;5.25;;;;;;;-146.27;100.00;83670.03;5092349;28;20519;-67
2023/04/16 10:12:14;;;;;;;18.42;7.20;;;;;;;-146.27;100.00;83726.28;5091684;28;20031;-66
2023/04/16 10:14:40;;;;;;;16.55;6.03;;;;;;;-146.27;100.00;83722.28;5092081;28;20141;-66
2023/04/16 10:17:07;;;;;;;18.48;7.13;;;;;;;-146.27;100.00;83692.13;5091604;28;20016;-67
2023/04/16 10:19:34;;;;;;;17.35;6.78;;;;;;;-146.27;100.00;83708.22;5092127;28;20536;-65
2023/04/16 10:22:00;;;;;;;14.23;6.07;;;;;;;-146.27;100.00;83682.09;5090700;28;20103;-67
2023/04/16 10:24:26;;;;;;;13.55;5.60;;;;;;;-146.27;100.00;83710.22;5091622;28;20027;-66
2023/04/16 10:26:53;;;;;;;8.57;4.95;;;;;;;-146.27;100.00;83702.19;5092024;28;20050;-66
2023/04/16 10:29:20;;;;;;;16.25;5.88;;;;;;;-146.27;100.00;83690.13;5091891;28;20020;-64
2023/04/16 10:31:46;;;;;;;16.50;6.15;;;;;;;-146.27;100.00;83686.09;5091581;28;20020;-67
2023/04/16 10:34:11;;;;;;;12.25;6.38;;;;;;;-146.27;100.00;83674.03;5091632;28;20040;-66
2023/04/16 10:36:38;;;;;;;14.50;5.78;;;;;;;-146.27;100.00;83700.16;5091810;28;20024;-65
2023/04/16 10:39:10;;;;;;;11.00;6.25;;;;;;;-146.27;100.00;83682.09;5091901;28;20031;-66
2023/04/16 10:41:36;;;;;;;11.88;4.90;;;;;;;-146.27;100.00;83682.09;5091094;28;20032;-65
2023/04/16 10:44:08;;;;;;;14.85;5.10;;;;;;;-146.27;100.00;83682.09;5086256;28;20062;-66
2023/04/16 10:46:39;;;;;;;12.88;5.65;;;;;;;-146.27;100.00;83668.00;5091117;28;20024;-65
2023/04/16 10:49:23;;;;;;;18.88;6.10;;;;;;;-146.27;100.00;83702.19;5090706;28;20433;-65
2023/04/16 10:51:54;;;;;;;17.63;5.85;;;;;;;-146.27;100.00;83674.03;5091703;28;20072;-66
2023/04/16 10:54:26;;;;;;;9.10;4.45;;;;;;;-146.27;100.00;83682.09;5091226;28;20447;-66
2023/04/16 10:56:52;;;;;;;15.30;5.43;;;;;;;-146.27;100.00;83647.91;5091010;28;20026;-67
2023/04/16 10:59:21;;;;;;;11.48;4.75;;;;;;;-146.27;100.00;83581.59;5091788;28;20027;-65